Pagrindinis puslapis
METAR-TAF:

METAR-TAF

Oro uostai :

Antverpenas, Belgija

platuma: 51-12N, ilguma: 004-28E, Aukštis: 12 m

Dabartinis oras

Ataskaita buvo paskelbta 39 minutes, ne 03:20 UTC
Vėjas 2 kt nuo kintamojo kryptimis
Temperatūra 12°C
Drėgmė 58%
Slėgis 1022 hPa
Matomumas 10 km arba daugiau
nėra debesų žemiau 1500 m ir nėra kamuolinių lietaus debesų

METAR: EBAW 310320Z AUTO VRB02KT CAVOK 12/04 Q1022

Laikas: 05:59 (03:59 UTC)

Prognozė

Ataskaita buvo paskelbta 1 valandą ir 39 minutes, ne 02:20 UTC
Prognozė galioja nuo 31 metu 03 UTC su 31 metu 12 UTC
Vėjas 6 kt iš Rytų/Šiaurės Rytų
Matomumas 10 km arba daugiau
nėra debesų žemiau 1500 m ir nėra kamuolinių lietaus debesų

TAF: EBAW 310220Z 3103/3112 06006KT CAVOK

Orai ataskaitas ir orų prognozės (METAR, TAF).

turimą stotys yra geltonos ir raudonos taškus žemėlapyje.

Perkelti pele per norėdami pamatyti stoties vardą.

Tada spustelėkite, norėdami matyti oro stebėjimo ir prognozės.

Norėdami pakeisti žemėlapį: spustelėkite ant žalios mygtukų su juodo kryžiaus žemyn,; žalią mygtuką su brūkšneliu, jei norite nutolinti; arba žalių rodyklių gretimoms žemėlapius.


METAR-TAF: